createdAt,value
2019-03-25T00:01:55.501Z,15.40
2019-03-25T00:06:58.896Z,12.30
2019-03-25T00:12:02.188Z,14.93
2019-03-25T00:17:05.402Z,18.43
2019-03-25T00:22:08.889Z,15.50
2019-03-25T00:27:12.145Z,19.30
2019-03-25T00:32:15.515Z,17.37
2019-03-25T00:37:18.780Z,15.33
2019-03-25T00:42:22.067Z,19.07
2019-03-25T00:47:25.354Z,13.07
2019-03-25T00:52:28.585Z,13.37
2019-03-25T00:57:31.817Z,19.97
2019-03-25T01:02:35.023Z,21.20
2019-03-25T01:07:38.223Z,15.57
2019-03-25T01:12:41.563Z,17.87
2019-03-25T01:17:44.853Z,12.07
2019-03-25T01:22:49.100Z,20.33
2019-03-25T01:27:52.702Z,27.70
2019-03-25T01:32:55.812Z,26.67
2019-03-25T01:37:58.930Z,27.07
2019-03-25T01:43:03.003Z,23.97
2019-03-25T01:48:06.317Z,15.57
2019-03-25T01:53:09.504Z,15.47
2019-03-25T01:58:12.709Z,8.67
2019-03-25T02:03:15.887Z,10.80
2019-03-25T02:08:19.055Z,8.10
2019-03-25T02:19:09.559Z,12.33
2019-03-25T02:24:12.815Z,13.00
2019-03-25T02:29:16.118Z,8.50
2019-03-25T02:34:20.249Z,1.87
2019-03-25T02:39:23.488Z,7.53
2019-03-25T02:44:26.947Z,10.30
2019-03-25T02:49:30.272Z,6.03
2019-03-25T02:54:34.549Z,9.87
2019-03-25T02:59:37.774Z,13.50
2019-03-25T03:04:41.061Z,10.30
2019-03-25T03:09:44.241Z,22.30
2019-03-25T03:14:47.375Z,13.83
2019-03-25T03:19:55.082Z,23.43
2019-03-25T03:24:57.060Z,14.70
2019-03-25T03:30:00.892Z,13.07
2019-03-25T03:35:04.550Z,8.57
2019-03-25T03:40:08.186Z,8.57
2019-03-25T03:45:11.689Z,9.10
2019-03-25T03:50:24.326Z,11.87
2019-03-25T03:55:47.843Z,7.43
2019-03-25T04:00:51.097Z,6.10
2019-03-25T04:05:54.300Z,7.80
2019-03-25T04:10:57.726Z,5.23
2019-03-25T04:16:01.688Z,9.63
2019-03-25T04:21:05.231Z,10.10
2019-03-25T04:26:08.513Z,11.23
2019-03-25T04:31:12.766Z,10.07
2019-03-25T04:36:16.009Z,9.30
2019-03-25T04:41:19.266Z,18.00
2019-03-25T04:46:23.415Z,8.40
2019-03-25T04:51:26.712Z,12.00
2019-03-25T04:56:39.118Z,11.03
2019-03-25T05:01:35.043Z,8.70
2019-03-25T05:06:38.336Z,6.53
2019-03-25T05:11:41.651Z,8.00
2019-03-25T05:16:45.070Z,11.67
2019-03-25T05:21:48.276Z,8.93
2019-03-25T05:26:51.560Z,7.67
2019-03-25T05:31:54.914Z,8.20
2019-03-25T05:36:58.186Z,5.33
2019-03-25T05:42:01.421Z,7.33
2019-03-25T05:47:04.733Z,8.87
2019-03-25T05:52:09.031Z,8.33
2019-03-25T05:57:12.270Z,10.67
2019-03-25T06:02:15.571Z,6.83
2019-03-25T06:07:18.785Z,8.77
2019-03-25T06:12:21.969Z,10.47
2019-03-25T06:17:25.267Z,11.40
2019-03-25T06:22:28.586Z,15.93
2019-03-25T06:27:31.868Z,13.47
2019-03-25T06:32:35.038Z,9.43
2019-03-25T06:37:38.332Z,21.40
2019-03-25T06:42:41.616Z,13.93
2019-03-25T06:47:44.879Z,13.63
2019-03-25T06:52:48.094Z,9.90
2019-03-25T06:57:51.417Z,13.13
2019-03-25T07:02:54.598Z,13.67
2019-03-25T07:07:58.056Z,16.83
2019-03-25T07:13:01.780Z,19.73
2019-03-25T07:18:05.562Z,17.97
2019-03-25T07:23:08.804Z,25.50
2019-03-25T07:28:11.911Z,9.63
2019-03-25T07:33:15.212Z,15.13
2019-03-25T07:38:18.483Z,12.93
2019-03-25T07:43:21.676Z,10.43
2019-03-25T07:48:24.916Z,9.70
2019-03-25T07:53:28.157Z,8.53
2019-03-25T07:58:31.308Z,11.87
2019-03-25T08:03:34.529Z,9.77
2019-03-25T08:08:37.799Z,9.43
2019-03-25T08:13:40.994Z,14.07
2019-03-25T08:18:44.695Z,8.20
2019-03-25T08:23:47.817Z,12.70
2019-03-25T08:28:50.984Z,8.67
2019-03-25T08:33:54.181Z,8.00
2019-03-25T08:38:57.337Z,4.47
2019-03-25T08:44:00.561Z,5.67
2019-03-25T08:49:03.785Z,5.33
2019-03-25T08:54:07.090Z,6.33
2019-03-25T08:59:10.257Z,7.77
2019-03-25T09:04:18.835Z,6.80
2019-03-25T09:09:21.969Z,6.47
2019-03-25T09:14:25.152Z,5.10
2019-03-25T09:19:28.291Z,5.87
2019-03-25T09:24:33.004Z,3.57
2019-03-25T09:29:36.411Z,3.90
2019-03-25T09:34:39.559Z,4.70
2019-03-25T09:39:42.835Z,3.27
2019-03-25T09:44:46.040Z,9.63
2019-03-25T09:49:49.227Z,5.47
2019-03-25T09:54:52.455Z,9.83
2019-03-25T09:59:55.598Z,8.13
2019-03-25T10:04:58.738Z,6.77
2019-03-25T10:10:02.317Z,8.83
2019-03-25T10:15:06.852Z,8.43
2019-03-25T10:20:10.424Z,7.50
2019-03-25T10:25:15.105Z,8.60
2019-03-25T10:30:18.850Z,6.70
2019-03-25T10:35:22.211Z,3.53
2019-03-25T10:40:25.469Z,3.53
2019-03-25T10:45:28.847Z,2.50
2019-03-25T10:50:31.974Z,5.23
2019-03-25T10:55:36.229Z,3.47
2019-03-25T11:00:40.449Z,3.47
2019-03-25T11:05:43.977Z,2.97
2019-03-25T11:10:47.201Z,5.87
2019-03-25T11:15:50.462Z,5.43
2019-03-25T11:20:53.798Z,10.13
2019-03-25T11:25:57.174Z,3.83
2019-03-25T11:31:01.492Z,5.97
2019-03-25T11:36:07.958Z,4.43
2019-03-25T11:41:11.144Z,5.23
2019-03-25T11:46:14.284Z,2.30
2019-03-25T11:51:17.500Z,5.13
2019-03-25T11:56:20.891Z,2.27
2019-03-25T12:01:24.040Z,5.97
2019-03-25T12:06:28.461Z,2.43
2019-03-25T12:11:31.796Z,3.23
2019-03-25T12:16:35.059Z,3.10
2019-03-25T12:21:38.325Z,4.10
2019-03-25T12:26:41.558Z,7.10
2019-03-25T12:31:44.867Z,4.73
2019-03-25T12:36:48.088Z,4.60
2019-03-25T12:41:54.138Z,4.97
2019-03-25T12:46:57.484Z,4.77
2019-03-25T12:52:00.767Z,1.50
2019-03-25T12:57:03.989Z,1.73
2019-03-25T13:02:07.244Z,1.87
2019-03-25T13:07:10.428Z,2.33
2019-03-25T13:12:13.799Z,10.27
2019-03-25T13:17:17.006Z,3.73
2019-03-25T13:22:20.299Z,3.63
2019-03-25T13:27:23.594Z,3.10
2019-03-25T13:32:26.903Z,3.17
2019-03-25T13:37:30.159Z,7.23
2019-03-25T13:42:33.439Z,4.50
2019-03-25T13:47:36.680Z,2.90
2019-03-25T13:52:39.996Z,2.80
2019-03-25T13:57:43.288Z,11.93
2019-03-25T14:02:46.496Z,2.80
2019-03-25T14:07:49.833Z,6.40
2019-03-25T14:12:53.084Z,3.57
2019-03-25T14:17:56.342Z,4.03
2019-03-25T14:22:59.646Z,1.03
2019-03-25T14:28:03.163Z,4.93
2019-03-25T14:33:06.526Z,4.33
2019-03-25T14:38:09.816Z,3.23
2019-03-25T14:43:13.153Z,4.53
2019-03-25T14:48:16.420Z,1.85
2019-03-25T14:53:19.844Z,0.62
2019-03-25T14:58:23.127Z,3.08
2019-03-25T15:03:26.343Z,5.87
2019-03-25T15:08:29.615Z,1.75
2019-03-25T15:13:33.059Z,3.62
2019-03-25T15:18:36.472Z,4.97
2019-03-25T15:23:39.894Z,4.50
2019-03-25T15:28:43.107Z,3.75
2019-03-25T15:33:46.396Z,4.67
2019-03-25T15:38:49.881Z,2.57
2019-03-25T15:43:53.137Z,6.13
2019-03-25T15:48:56.376Z,3.73
2019-03-25T15:53:59.684Z,7.53
2019-03-25T15:59:03.127Z,7.13
2019-03-25T16:04:12.415Z,7.47
2019-03-25T16:09:15.592Z,4.20
2019-03-25T16:14:18.728Z,5.30
2019-03-25T16:19:21.977Z,6.37
2019-03-25T16:24:25.305Z,3.50
2019-03-25T16:29:28.726Z,2.67
2019-03-25T16:34:32.055Z,13.60
2019-03-25T16:39:35.363Z,7.17
2019-03-25T16:44:38.717Z,6.17
2019-03-25T16:49:41.929Z,4.13
2019-03-25T16:54:45.238Z,5.63
2019-03-25T16:59:48.766Z,4.63
2019-03-25T17:04:52.017Z,3.33
2019-03-25T17:09:55.174Z,4.10
2019-03-25T17:14:58.482Z,2.93
2019-03-25T17:20:01.747Z,5.17
2019-03-25T17:25:06.171Z,8.17
2019-03-25T17:30:12.167Z,6.07
2019-03-25T17:35:15.563Z,3.87
2019-03-25T17:40:19.675Z,5.20
2019-03-25T17:45:23.092Z,5.07
2019-03-25T17:50:26.405Z,6.13
2019-03-25T17:55:30.632Z,4.80
2019-03-25T18:01:03.864Z,6.57
2019-03-25T18:06:08.124Z,8.53
2019-03-25T18:11:11.331Z,10.53
2019-03-25T18:16:14.854Z,3.53
2019-03-25T18:21:18.085Z,3.03
2019-03-25T18:26:21.426Z,9.43
2019-03-25T18:31:24.725Z,8.10
2019-03-25T18:36:27.925Z,10.70
2019-03-25T18:41:31.107Z,3.37
2019-03-25T18:46:34.363Z,9.20
2019-03-25T18:51:37.452Z,6.43
2019-03-25T18:56:41.971Z,2.30
2019-03-25T19:01:54.017Z,9.53
2019-03-25T19:06:50.481Z,6.40
2019-03-25T19:11:53.819Z,7.00
2019-03-25T19:16:57.114Z,8.47
2019-03-25T19:22:01.127Z,10.60
2019-03-25T19:27:05.635Z,6.67
2019-03-25T19:32:10.553Z,2.97
2019-03-25T19:37:14.514Z,4.30
2019-03-25T19:42:18.528Z,8.80
2019-03-25T19:47:22.400Z,1.53
2019-03-25T19:52:26.771Z,3.53
2019-03-25T19:57:30.892Z,5.30
2019-03-25T20:02:34.921Z,7.23
2019-03-25T20:07:39.148Z,6.50
2019-03-25T20:12:43.127Z,8.70
2019-03-25T20:17:47.155Z,6.17
2019-03-25T20:22:51.137Z,8.27
2019-03-25T20:27:55.456Z,3.50
2019-03-25T20:32:59.372Z,4.20
2019-03-25T20:38:03.561Z,9.97
2019-03-25T20:43:07.739Z,6.93
2019-03-25T20:48:12.196Z,29.30
2019-03-25T20:53:15.920Z,9.17
2019-03-25T20:58:19.961Z,8.97
2019-03-25T21:03:23.413Z,3.87
2019-03-25T21:08:26.766Z,10.47
2019-03-25T21:13:30.020Z,6.60
2019-03-25T21:18:36.118Z,3.50
2019-03-25T21:23:39.562Z,3.67
2019-03-25T21:28:42.940Z,8.57
2019-03-25T21:33:46.355Z,7.60
2019-03-25T21:38:50.131Z,9.23
2019-03-25T21:43:54.546Z,12.00
2019-03-25T21:48:57.815Z,7.20
2019-03-25T21:54:01.053Z,9.40
2019-03-25T21:59:05.508Z,14.63
2019-03-25T22:04:08.775Z,13.20
2019-03-25T22:09:12.151Z,14.50
2019-03-25T22:14:15.609Z,13.90
2019-03-25T22:19:18.871Z,19.17
2019-03-25T22:24:22.309Z,15.73
2019-03-25T22:29:25.672Z,17.50
2019-03-25T22:34:28.784Z,16.93
2019-03-25T22:39:32.044Z,17.63
2019-03-25T22:44:35.297Z,7.47
2019-03-25T22:49:38.535Z,6.87
2019-03-25T22:54:41.780Z,10.73
2019-03-25T22:59:45.111Z,8.70
2019-03-25T23:04:48.350Z,4.13
2019-03-25T23:09:52.769Z,7.53
2019-03-25T23:14:55.959Z,8.23
2019-03-25T23:19:59.076Z,5.70
2019-03-25T23:25:02.304Z,6.03
2019-03-25T23:30:05.847Z,7.50
2019-03-25T23:35:09.139Z,8.60
2019-03-25T23:40:12.556Z,4.13
2019-03-25T23:45:15.951Z,4.20
2019-03-25T23:50:19.287Z,6.53
2019-03-25T23:55:22.507Z,6.03
